createdAt,value
2022-09-04T00:02:24.524Z,18.60
2022-09-04T00:05:03.098Z,18.80
2022-09-04T00:07:39.335Z,18.40
2022-09-04T00:10:13.192Z,18.50
2022-09-04T00:12:46.808Z,18.60
2022-09-04T00:15:19.352Z,18.60
2022-09-04T00:17:53.977Z,18.70
2022-09-04T00:20:35.413Z,18.80
2022-09-04T00:23:11.308Z,18.70
2022-09-04T00:25:42.323Z,19.00
2022-09-04T00:28:16.984Z,18.70
2022-09-04T00:30:51.020Z,18.30
2022-09-04T00:33:26.718Z,18.30
2022-09-04T00:35:59.956Z,18.40
2022-09-04T00:38:39.128Z,18.50
2022-09-04T00:41:14.269Z,18.80
2022-09-04T00:44:08.569Z,18.00
2022-09-04T00:47:07.519Z,18.60
2022-09-04T00:50:01.004Z,18.20
2022-09-04T00:52:46.653Z,18.50
2022-09-04T00:55:29.428Z,18.60
2022-09-04T00:58:12.304Z,18.40
2022-09-04T01:00:40.292Z,18.40
2022-09-04T01:03:21.924Z,18.30
2022-09-04T01:06:20.264Z,18.40
2022-09-04T01:09:04.302Z,18.20
2022-09-04T01:11:40.583Z,18.20
2022-09-04T01:14:19.246Z,17.80
2022-09-04T01:16:50.423Z,18.00
2022-09-04T01:19:40.937Z,17.90
2022-09-04T01:22:22.783Z,18.00
2022-09-04T01:25:09.556Z,18.30
2022-09-04T01:27:51.363Z,18.10
2022-09-04T01:30:20.873Z,18.30
2022-09-04T01:33:05.409Z,18.50
2022-09-04T01:35:40.252Z,17.80
2022-09-04T01:38:14.915Z,18.20
2022-09-04T01:40:47.705Z,18.20
2022-09-04T01:43:20.886Z,18.10
2022-09-04T01:46:05.998Z,18.10
2022-09-04T01:48:45.017Z,17.70
2022-09-04T01:51:21.672Z,17.90
2022-09-04T01:54:03.355Z,17.90
2022-09-04T01:56:39.064Z,17.70
2022-09-04T01:59:16.575Z,17.70
2022-09-04T02:01:53.317Z,17.80
2022-09-04T02:04:28.808Z,18.00
2022-09-04T02:07:06.176Z,17.90
2022-09-04T02:09:42.844Z,17.90
2022-09-04T02:12:21.167Z,18.00
2022-09-04T02:14:59.471Z,18.00
2022-09-04T02:17:39.163Z,17.70
2022-09-04T02:20:17.820Z,17.80
2022-09-04T02:22:59.943Z,18.00
2022-09-04T02:25:31.375Z,17.80
2022-09-04T02:28:10.866Z,17.50
2022-09-04T02:30:46.750Z,17.50
2022-09-04T02:33:30.256Z,17.00
2022-09-04T02:36:00.766Z,17.70
2022-09-04T02:38:39.447Z,17.70
2022-09-04T02:41:12.687Z,17.80
2022-09-04T02:43:51.932Z,17.40
2022-09-04T02:46:29.112Z,17.70
2022-09-04T02:49:09.201Z,17.70
2022-09-04T02:52:01.801Z,17.90
2022-09-04T02:54:52.399Z,17.70
2022-09-04T02:57:29.860Z,18.00
2022-09-04T03:00:07.911Z,17.70
2022-09-04T03:02:43.088Z,17.80
2022-09-04T03:05:20.051Z,17.80
2022-09-04T03:07:55.567Z,17.90
2022-09-04T03:10:30.868Z,17.80
2022-09-04T03:13:06.337Z,17.70
2022-09-04T03:15:41.414Z,17.80
2022-09-04T03:18:17.934Z,17.40
2022-09-04T03:20:52.644Z,17.70
2022-09-04T03:23:24.952Z,17.80
2022-09-04T03:26:07.907Z,17.60
2022-09-04T03:28:46.925Z,17.70
2022-09-04T03:31:28.096Z,17.40
2022-09-04T03:34:08.955Z,17.30
2022-09-04T03:36:45.231Z,17.40
2022-09-04T03:39:19.982Z,17.30
2022-09-04T03:41:59.587Z,17.10
2022-09-04T03:44:40.456Z,17.40
2022-09-04T03:47:19.140Z,17.40
2022-09-04T03:50:01.016Z,17.70
2022-09-04T03:52:36.916Z,17.70
2022-09-04T03:55:14.204Z,17.70
2022-09-04T03:58:04.945Z,17.60
2022-09-04T04:00:41.857Z,17.70
2022-09-04T04:03:34.065Z,17.40
2022-09-04T04:06:15.217Z,17.50
2022-09-04T04:09:18.695Z,17.70
2022-09-04T04:12:13.350Z,17.40
2022-09-04T04:14:55.754Z,17.50
2022-09-04T04:17:39.271Z,17.40
2022-09-04T04:20:24.531Z,17.40
2022-09-04T04:23:23.444Z,17.40
2022-09-04T04:26:07.965Z,17.30
2022-09-04T04:28:59.531Z,17.50
2022-09-04T04:31:38.944Z,17.20
2022-09-04T04:34:11.804Z,16.60
2022-09-04T04:36:47.749Z,17.10
2022-09-04T04:39:20.156Z,17.30
2022-09-04T04:42:05.859Z,17.30
2022-09-04T04:45:13.147Z,16.90
2022-09-04T04:47:49.920Z,17.00
2022-09-04T04:50:23.145Z,17.00
2022-09-04T04:52:57.391Z,17.10
2022-09-04T04:55:38.929Z,17.10
2022-09-04T04:58:30.785Z,17.00
2022-09-04T05:01:06.888Z,17.00
2022-09-04T05:03:45.979Z,17.00
2022-09-04T05:06:19.796Z,17.10
2022-09-04T05:08:56.670Z,17.10
2022-09-04T05:11:35.492Z,17.20
2022-09-04T05:14:18.320Z,17.30
2022-09-04T05:16:56.009Z,17.30
2022-09-04T05:19:33.441Z,17.40
2022-09-04T05:22:09.627Z,17.20
2022-09-04T05:24:47.769Z,17.50
2022-09-04T05:27:39.448Z,17.40
2022-09-04T05:30:13.052Z,17.40
2022-09-04T05:32:47.292Z,17.40
2022-09-04T05:35:22.293Z,17.40
2022-09-04T05:37:54.284Z,17.40
2022-09-04T05:40:29.258Z,17.70
2022-09-04T05:43:13.122Z,17.70
2022-09-04T05:45:53.595Z,17.60
2022-09-04T05:48:26.638Z,17.40
2022-09-04T05:51:06.015Z,17.60
2022-09-04T05:53:50.085Z,17.80
2022-09-04T05:56:43.654Z,17.60
2022-09-04T05:59:49.100Z,17.70
2022-09-04T06:02:41.179Z,18.00
2022-09-04T06:05:22.128Z,18.10
2022-09-04T06:08:00.119Z,18.10
2022-09-04T06:10:37.072Z,17.90
2022-09-04T06:13:21.984Z,18.20
2022-09-04T06:16:02.621Z,18.40
2022-09-04T06:18:47.574Z,18.10
2022-09-04T06:21:36.728Z,18.20
2022-09-04T06:24:25.298Z,18.40
2022-09-04T06:27:11.492Z,18.70
2022-09-04T06:29:54.133Z,18.50
2022-09-04T06:32:36.809Z,18.70
2022-09-04T06:35:18.387Z,18.90
2022-09-04T06:37:58.517Z,19.00
2022-09-04T06:40:41.767Z,19.60
2022-09-04T06:43:19.425Z,20.40
2022-09-04T06:46:02.129Z,21.40
2022-09-04T06:48:47.870Z,22.20
2022-09-04T06:51:32.670Z,23.20
2022-09-04T06:54:13.539Z,24.10
2022-09-04T06:57:01.296Z,24.50
2022-09-04T06:59:54.295Z,25.50
2022-09-04T07:02:38.475Z,25.70
2022-09-04T07:05:18.863Z,25.30
2022-09-04T07:07:58.576Z,25.60
2022-09-04T07:10:31.206Z,25.70
2022-09-04T07:13:33.715Z,26.40
2022-09-04T07:16:18.889Z,26.50
2022-09-04T07:19:08.842Z,26.60
2022-09-04T07:21:45.268Z,26.90
2022-09-04T07:24:38.617Z,27.10
2022-09-04T07:27:14.195Z,27.10
2022-09-04T07:29:48.681Z,27.10
2022-09-04T07:32:23.283Z,27.10
2022-09-04T07:34:58.530Z,27.60
2022-09-04T07:37:33.247Z,27.30
2022-09-04T07:40:12.602Z,27.80
2022-09-04T07:42:48.160Z,27.90
2022-09-04T07:45:26.258Z,28.00
2022-09-04T07:48:04.061Z,28.30
2022-09-04T07:50:39.980Z,28.90
2022-09-04T07:53:25.460Z,29.60
2022-09-04T07:55:56.915Z,29.90
2022-09-04T07:58:44.127Z,29.90
2022-09-04T08:01:26.415Z,29.60
2022-09-04T08:04:22.089Z,29.70
2022-09-04T08:06:53.295Z,29.80
2022-09-04T08:09:44.979Z,30.10
2022-09-04T08:12:50.770Z,29.90
2022-09-04T08:15:21.718Z,29.80
2022-09-04T08:18:09.208Z,30.30
2022-09-04T08:20:48.982Z,31.10
2022-09-04T08:23:49.948Z,30.80
2022-09-04T08:26:25.406Z,30.80
2022-09-04T08:29:23.941Z,31.00
2022-09-04T08:32:04.534Z,31.00
2022-09-04T08:34:52.839Z,31.40
2022-09-04T08:37:26.709Z,31.90
2022-09-04T08:40:14.759Z,31.90
2022-09-04T08:43:20.299Z,31.50
2022-09-04T08:46:13.336Z,31.30
2022-09-04T08:49:23.960Z,32.20
2022-09-04T08:52:25.057Z,32.80
2022-09-04T08:55:24.135Z,33.10
2022-09-04T08:58:21.508Z,33.10
2022-09-04T09:01:10.536Z,31.80
2022-09-04T09:04:03.950Z,32.10
2022-09-04T09:07:02.815Z,32.30
2022-09-04T09:10:09.324Z,32.80
2022-09-04T09:13:18.040Z,34.00
2022-09-04T09:16:23.140Z,33.60
2022-09-04T09:19:22.597Z,33.40
2022-09-04T09:22:10.389Z,32.90
2022-09-04T09:25:13.460Z,33.40
2022-09-04T09:28:18.232Z,33.90
2022-09-04T09:31:18.404Z,34.90
2022-09-04T09:34:12.279Z,34.30
2022-09-04T09:37:09.021Z,33.50
2022-09-04T09:40:20.688Z,33.30
2022-09-04T09:43:42.056Z,33.80
2022-09-04T09:46:32.576Z,34.60
2022-09-04T09:49:39.630Z,34.10
2022-09-04T09:52:27.508Z,33.50
2022-09-04T09:55:23.717Z,33.70
2022-09-04T09:58:39.057Z,32.20
2022-09-04T10:01:24.590Z,30.90
2022-09-04T10:04:11.778Z,32.20
2022-09-04T10:07:21.214Z,33.60
2022-09-04T10:10:18.124Z,34.60
2022-09-04T10:13:16.120Z,34.70
2022-09-04T10:16:28.410Z,34.90
2022-09-04T10:19:27.168Z,35.20
2022-09-04T10:22:28.658Z,34.90
2022-09-04T10:25:42.199Z,34.80
2022-09-04T10:28:31.627Z,34.20
2022-09-04T10:31:27.748Z,35.10
2022-09-04T10:34:11.631Z,34.90
2022-09-04T10:36:52.995Z,35.30
2022-09-04T10:39:46.828Z,35.20
2022-09-04T10:42:31.227Z,35.00
2022-09-04T10:45:17.806Z,34.20
2022-09-04T10:48:28.458Z,33.90
2022-09-04T10:51:23.259Z,33.80
2022-09-04T10:54:25.921Z,33.80
2022-09-04T10:57:08.022Z,34.40
2022-09-04T10:59:59.196Z,34.90
2022-09-04T11:02:54.942Z,35.10
2022-09-04T11:05:41.312Z,35.30
2022-09-04T11:08:50.209Z,35.90
2022-09-04T11:11:40.144Z,35.30
2022-09-04T11:14:33.401Z,33.70
2022-09-04T11:17:30.469Z,32.80
2022-09-04T11:20:26.211Z,32.30
2022-09-04T11:23:31.166Z,32.70
2022-09-04T11:26:36.179Z,33.60
2022-09-04T11:29:22.740Z,33.50
2022-09-04T11:32:12.195Z,33.80
2022-09-04T11:35:27.480Z,33.50
2022-09-04T11:38:04.341Z,32.50
2022-09-04T11:41:03.612Z,31.00
2022-09-04T11:43:50.302Z,30.20
2022-09-04T11:46:44.149Z,30.60
2022-09-04T11:49:48.260Z,31.30
2022-09-04T11:52:28.445Z,31.90
2022-09-04T11:55:19.306Z,31.90
2022-09-04T11:58:00.251Z,32.30
2022-09-04T12:00:34.227Z,32.90
2022-09-04T12:03:34.123Z,33.30
2022-09-04T12:06:13.702Z,32.60
2022-09-04T12:09:07.182Z,31.60
2022-09-04T12:12:08.101Z,31.60
2022-09-04T12:14:52.043Z,32.20
2022-09-04T12:17:47.440Z,32.60
2022-09-04T12:20:50.485Z,32.60
2022-09-04T12:23:47.666Z,32.80
2022-09-04T12:26:34.565Z,32.80
2022-09-04T12:29:38.584Z,32.60
2022-09-04T12:32:28.511Z,33.00
2022-09-04T12:35:43.843Z,32.60
2022-09-04T12:38:37.651Z,32.30
2022-09-04T12:41:10.284Z,32.20
2022-09-04T12:43:53.557Z,31.90
2022-09-04T12:46:36.351Z,30.90
2022-09-04T12:49:26.049Z,30.60
2022-09-04T12:52:06.176Z,30.40
2022-09-04T12:54:41.133Z,30.20
2022-09-04T12:57:25.274Z,29.90
2022-09-04T13:00:05.653Z,30.50
2022-09-04T13:02:46.859Z,31.00
2022-09-04T13:05:51.731Z,30.70
2022-09-04T13:08:31.463Z,30.00
2022-09-04T13:11:07.872Z,29.40
2022-09-04T13:13:43.858Z,29.10
2022-09-04T13:16:20.323Z,29.50
2022-09-04T13:19:00.087Z,29.20
2022-09-04T13:21:54.840Z,28.80
2022-09-04T13:24:35.714Z,28.80
2022-09-04T13:27:16.191Z,28.80
2022-09-04T13:30:02.877Z,28.60
2022-09-04T13:32:53.420Z,28.50
2022-09-04T13:35:36.761Z,28.50
2022-09-04T13:38:21.200Z,28.50
2022-09-04T13:41:13.745Z,28.70
2022-09-04T13:44:16.165Z,28.90
2022-09-04T13:46:50.596Z,29.00
2022-09-04T13:49:27.194Z,29.00
2022-09-04T13:52:02.211Z,29.20
2022-09-04T13:54:34.951Z,28.90
2022-09-04T13:57:09.325Z,28.50
2022-09-04T13:59:38.229Z,28.30
2022-09-04T14:02:13.184Z,28.40
2022-09-04T14:04:44.873Z,28.50
2022-09-04T14:07:19.599Z,28.70
2022-09-04T14:09:50.897Z,28.90
2022-09-04T14:12:35.428Z,28.70
2022-09-04T14:15:32.715Z,28.70
2022-09-04T14:18:16.127Z,28.70
2022-09-04T14:21:01.358Z,28.70
2022-09-04T14:23:42.184Z,28.70
2022-09-04T14:26:21.727Z,28.70
2022-09-04T14:28:59.568Z,28.50
2022-09-04T14:31:35.108Z,28.80
2022-09-04T14:34:15.977Z,29.10
2022-09-04T14:36:56.439Z,29.10
2022-09-04T14:39:28.946Z,29.30
2022-09-04T14:42:22.141Z,29.50
2022-09-04T14:45:13.173Z,29.70
2022-09-04T14:47:47.197Z,29.90
2022-09-04T14:50:18.191Z,29.70
2022-09-04T14:52:51.323Z,29.70
2022-09-04T14:55:26.468Z,29.50
2022-09-04T14:58:00.729Z,29.50
2022-09-04T15:00:31.300Z,29.20
2022-09-04T15:03:09.656Z,29.20
2022-09-04T15:05:47.264Z,29.00
2022-09-04T15:08:28.820Z,29.00
2022-09-04T15:11:00.627Z,29.10
2022-09-04T15:13:52.911Z,29.10
2022-09-04T15:16:35.563Z,29.30
2022-09-04T15:19:12.641Z,29.10
2022-09-04T15:21:46.387Z,28.70
2022-09-04T15:24:25.778Z,28.90
2022-09-04T15:27:01.384Z,29.10
2022-09-04T15:29:36.615Z,29.10
2022-09-04T15:32:13.797Z,28.80
2022-09-04T15:34:42.675Z,28.70
2022-09-04T15:37:14.352Z,28.50
2022-09-04T15:39:51.163Z,28.60
2022-09-04T15:42:36.110Z,28.70
2022-09-04T15:45:11.105Z,28.80
2022-09-04T15:47:58.048Z,28.70
2022-09-04T15:50:29.188Z,28.70
2022-09-04T15:53:09.960Z,28.70
2022-09-04T15:55:41.152Z,28.60
2022-09-04T15:58:16.716Z,28.60
2022-09-04T16:01:12.001Z,28.60
2022-09-04T16:03:59.986Z,28.50
2022-09-04T16:06:32.090Z,28.40
2022-09-04T16:09:04.692Z,28.40
2022-09-04T16:11:36.100Z,28.30
2022-09-04T16:14:06.337Z,28.30
2022-09-04T16:16:43.114Z,28.40
2022-09-04T16:19:23.743Z,28.40
2022-09-04T16:22:04.585Z,28.30
2022-09-04T16:24:36.486Z,28.20
2022-09-04T16:27:09.640Z,28.10
2022-09-04T16:29:41.841Z,28.00
2022-09-04T16:32:12.149Z,28.00
2022-09-04T16:34:48.996Z,28.00
2022-09-04T16:37:23.464Z,27.90
2022-09-04T16:40:05.598Z,27.80
2022-09-04T16:42:42.273Z,27.80
2022-09-04T16:45:14.931Z,27.80
2022-09-04T16:47:47.129Z,27.80
2022-09-04T16:50:27.157Z,27.60
2022-09-04T16:53:13.591Z,27.60
2022-09-04T16:55:48.688Z,27.50
2022-09-04T16:58:39.812Z,27.40
2022-09-04T17:01:16.783Z,27.30
2022-09-04T17:04:13.133Z,27.20
2022-09-04T17:06:54.098Z,27.20
2022-09-04T17:09:28.543Z,27.20
2022-09-04T17:12:01.373Z,27.20
2022-09-04T17:14:36.246Z,27.30
2022-09-04T17:17:21.539Z,27.20
2022-09-04T17:20:05.339Z,27.00
2022-09-04T17:28:54.077Z,26.90
2022-09-04T17:29:15.231Z,26.90
2022-09-04T17:29:28.128Z,26.90
2022-09-04T17:31:53.530Z,26.90
2022-09-04T17:40:30.447Z,26.80
2022-09-04T17:40:51.766Z,26.80
2022-09-04T17:41:40.151Z,26.80
2022-09-04T17:43:32.806Z,26.60
2022-09-04T17:46:12.546Z,26.60
2022-09-04T17:48:43.585Z,26.60
2022-09-04T17:51:19.196Z,26.50
2022-09-04T17:53:53.135Z,26.40
2022-09-04T17:56:26.217Z,26.30
2022-09-04T17:58:58.040Z,26.20
2022-09-04T18:01:29.870Z,26.20
2022-09-04T18:04:22.849Z,26.20
2022-09-04T18:07:00.542Z,26.10
2022-09-04T18:10:03.762Z,25.90
2022-09-04T18:12:37.696Z,25.80
2022-09-04T18:15:33.219Z,25.80
2022-09-04T18:18:08.621Z,25.70
2022-09-04T18:20:39.996Z,25.70
2022-09-04T18:23:51.516Z,25.60
2022-09-04T18:26:40.081Z,25.60
2022-09-04T18:31:11.305Z,25.60
2022-09-04T18:37:11.681Z,25.50
2022-09-04T18:37:20.413Z,25.30
2022-09-04T18:38:20.343Z,25.00
2022-09-04T18:46:33.279Z,24.90
2022-09-04T18:50:33.210Z,24.70
2022-09-04T18:50:34.150Z,24.70
2022-09-04T18:50:40.488Z,24.80
2022-09-04T18:52:19.258Z,24.40
2022-09-04T18:54:51.880Z,24.20
2022-09-04T18:57:28.008Z,24.20
2022-09-04T19:00:08.778Z,24.20
2022-09-04T19:02:52.891Z,24.30
2022-09-04T19:05:24.273Z,24.20
2022-09-04T19:07:56.961Z,24.10
2022-09-04T19:10:27.927Z,24.10
2022-09-04T19:13:01.766Z,24.00
2022-09-04T19:15:51.741Z,24.00
2022-09-04T19:18:26.802Z,24.00
2022-09-04T19:21:11.195Z,23.90
2022-09-04T19:23:47.379Z,23.70
2022-09-04T19:26:24.387Z,23.60
2022-09-04T19:28:57.222Z,23.60
2022-09-04T19:31:32.679Z,23.50
2022-09-04T19:34:08.754Z,23.50
2022-09-04T19:36:43.675Z,23.40
2022-09-04T19:45:57.587Z,23.50
2022-09-04T19:45:59.935Z,23.50
2022-09-04T19:46:11.290Z,23.20
2022-09-04T19:48:18.336Z,23.20
2022-09-04T19:53:19.252Z,23.10
2022-09-04T19:53:51.978Z,23.10
2022-09-04T19:56:30.329Z,23.00
2022-09-04T19:59:05.752Z,23.10
2022-09-04T20:01:43.301Z,23.00
2022-09-04T20:04:23.661Z,23.00
2022-09-04T20:06:55.783Z,22.90
2022-09-04T20:09:33.063Z,22.90
2022-09-04T20:12:11.109Z,22.90
2022-09-04T20:14:43.210Z,22.90
2022-09-04T20:17:27.309Z,23.00
2022-09-04T20:20:00.390Z,23.00
2022-09-04T20:22:32.791Z,23.00
2022-09-04T20:25:20.147Z,22.90
2022-09-04T20:27:51.865Z,22.80
2022-09-04T20:30:21.149Z,22.80
2022-09-04T20:32:56.588Z,22.70
2022-09-04T20:35:39.023Z,22.70
2022-09-04T20:38:23.489Z,22.60
2022-09-04T20:40:57.171Z,22.60
2022-09-04T20:43:32.014Z,22.60
2022-09-04T20:47:58.204Z,22.50
2022-09-04T20:52:58.242Z,22.40
2022-09-04T20:53:05.236Z,22.50
2022-09-04T20:55:10.913Z,22.50
2022-09-04T21:03:05.322Z,22.40
2022-09-04T21:03:17.934Z,22.40
2022-09-04T21:03:56.461Z,22.30
2022-09-04T21:06:31.049Z,22.20
2022-09-04T21:09:10.088Z,22.40
2022-09-04T21:11:42.161Z,22.30
2022-09-04T21:14:17.494Z,22.20
2022-09-04T21:17:16.987Z,22.20
2022-09-04T21:20:13.637Z,22.00
2022-09-04T21:23:05.369Z,21.90
2022-09-04T21:25:47.541Z,21.70
2022-09-04T21:28:54.691Z,21.80
2022-09-04T21:31:45.538Z,21.70
2022-09-04T21:34:33.283Z,21.60
2022-09-04T21:37:18.104Z,21.50
2022-09-04T21:40:21.641Z,21.40
2022-09-04T21:43:20.725Z,21.40
2022-09-04T21:46:13.065Z,21.50
2022-09-04T21:49:07.942Z,21.70
2022-09-04T21:51:55.457Z,21.50
2022-09-04T21:56:38.102Z,21.40
2022-09-04T22:02:36.514Z,21.30
2022-09-04T22:02:36.517Z,21.40
2022-09-04T22:04:05.502Z,21.20
2022-09-04T22:09:44.460Z,21.30
2022-09-04T22:13:33.919Z,21.00
2022-09-04T22:13:44.032Z,21.10
2022-09-04T22:15:58.981Z,20.70
2022-09-04T22:18:43.850Z,20.80
2022-09-04T22:21:25.571Z,20.80
2022-09-04T22:24:32.960Z,20.80
2022-09-04T22:27:37.682Z,20.90
2022-09-04T22:30:23.461Z,20.70
2022-09-04T22:33:32.353Z,20.60
2022-09-04T22:36:36.211Z,20.60
2022-09-04T22:39:46.665Z,20.50
2022-09-04T22:42:33.196Z,20.40
2022-09-04T22:45:24.836Z,20.70
2022-09-04T22:48:21.965Z,20.80
2022-09-04T22:51:01.816Z,20.60
2022-09-04T22:54:01.283Z,20.80
2022-09-04T22:56:52.714Z,20.60
2022-09-04T22:59:52.980Z,20.70
2022-09-04T23:06:16.175Z,20.80
2022-09-04T23:13:46.718Z,20.80
2022-09-04T23:13:49.105Z,20.90
2022-09-04T23:15:14.892Z,21.00
2022-09-04T23:21:16.627Z,20.90
2022-09-04T23:26:38.680Z,20.80
2022-09-04T23:26:46.441Z,20.80
2022-09-04T23:27:28.727Z,20.30
2022-09-04T23:30:26.539Z,20.40
2022-09-04T23:33:37.905Z,20.20
2022-09-04T23:36:33.195Z,20.60
2022-09-04T23:39:41.816Z,20.10
2022-09-04T23:42:29.358Z,20.30
2022-09-04T23:45:24.258Z,20.00
2022-09-04T23:48:08.859Z,20.40
2022-09-04T23:50:48.104Z,20.50
2022-09-04T23:53:29.407Z,20.40
2022-09-04T23:56:17.402Z,20.40
2022-09-04T23:59:19.025Z,20.10
